createdAt,value
2022-10-13T00:00:46.963Z,9.60
2022-10-13T00:03:32.776Z,8.88
2022-10-13T00:06:24.514Z,9.88
2022-10-13T00:09:10.202Z,9.10
2022-10-13T00:11:58.786Z,8.32
2022-10-13T00:14:44.294Z,8.25
2022-10-13T00:17:29.592Z,8.98
2022-10-13T00:20:14.980Z,8.18
2022-10-13T00:23:00.504Z,8.52
2022-10-13T00:25:49.014Z,8.00
2022-10-13T00:28:34.986Z,8.38
2022-10-13T00:31:23.091Z,7.95
2022-10-13T00:34:09.292Z,7.70
2022-10-13T00:36:54.476Z,8.18
2022-10-13T00:39:39.904Z,8.10
2022-10-13T00:42:27.262Z,7.55
2022-10-13T00:45:27.243Z,7.32
2022-10-13T00:48:13.479Z,7.45
2022-10-13T00:50:59.016Z,7.97
2022-10-13T00:53:47.619Z,6.95
2022-10-13T00:56:35.712Z,6.85
2022-10-13T00:59:27.473Z,6.78
2022-10-13T01:02:12.983Z,6.25
2022-10-13T01:04:59.497Z,7.07
2022-10-13T01:07:48.913Z,7.30
2022-10-13T01:10:55.922Z,6.78
2022-10-13T01:13:56.400Z,7.25
2022-10-13T01:17:00.032Z,5.93
2022-10-13T01:20:30.579Z,5.43
2022-10-13T01:23:47.111Z,5.72
2022-10-13T01:27:09.635Z,5.57
2022-10-13T01:33:01.228Z,5.68
2022-10-13T01:36:05.594Z,6.60
2022-10-13T01:39:06.865Z,5.65
2022-10-13T01:41:57.301Z,4.85
2022-10-13T01:44:49.313Z,6.05
2022-10-13T01:47:37.511Z,6.57
2022-10-13T01:50:23.571Z,5.32
2022-10-13T01:53:12.001Z,5.65
2022-10-13T01:55:59.914Z,4.85
2022-10-13T01:58:46.435Z,5.65
2022-10-13T02:01:35.026Z,6.35
2022-10-13T02:04:20.434Z,5.78
2022-10-13T02:07:16.073Z,5.75
2022-10-13T02:10:13.607Z,7.32
2022-10-13T02:13:05.139Z,5.85
2022-10-13T02:15:55.491Z,6.72
2022-10-13T02:18:41.498Z,6.28
2022-10-13T02:21:28.787Z,6.00
2022-10-13T02:24:16.270Z,5.93
2022-10-13T02:27:02.251Z,5.95
2022-10-13T02:29:52.591Z,6.28
2022-10-13T02:32:38.955Z,6.38
2022-10-13T02:35:24.205Z,4.80
2022-10-13T02:38:10.694Z,5.88
2022-10-13T02:40:56.372Z,5.28
2022-10-13T02:43:42.772Z,4.78
2022-10-13T02:46:28.371Z,4.72
2022-10-13T02:49:13.915Z,5.75
2022-10-13T02:51:59.178Z,6.03
2022-10-13T02:54:44.722Z,4.95
2022-10-13T02:57:30.378Z,5.25
2022-10-13T03:00:17.846Z,5.53
2022-10-13T03:03:03.752Z,5.07
2022-10-13T03:05:49.397Z,5.53
2022-10-13T03:08:35.970Z,5.25
2022-10-13T03:11:21.738Z,5.35
2022-10-13T03:14:07.085Z,5.07
2022-10-13T03:16:52.398Z,4.25
2022-10-13T03:19:38.709Z,4.50
2022-10-13T03:22:24.479Z,4.63
2022-10-13T03:25:10.724Z,4.15
2022-10-13T03:27:59.339Z,3.53
2022-10-13T03:30:44.814Z,4.50
2022-10-13T03:33:30.419Z,4.18
2022-10-13T03:36:16.353Z,5.32
2022-10-13T03:39:04.050Z,4.90
2022-10-13T03:41:50.022Z,4.10
2022-10-13T03:44:35.614Z,4.78
2022-10-13T03:47:21.060Z,4.57
2022-10-13T03:50:07.198Z,4.43
2022-10-13T03:52:52.868Z,5.53
2022-10-13T03:55:38.266Z,5.32
2022-10-13T03:58:25.347Z,5.78
2022-10-13T04:01:14.304Z,5.13
2022-10-13T04:04:02.569Z,5.43
2022-10-13T04:06:47.997Z,4.38
2022-10-13T04:09:33.752Z,5.80
2022-10-13T04:12:21.095Z,3.83
2022-10-13T04:15:07.835Z,3.72
2022-10-13T04:17:53.117Z,3.97
2022-10-13T04:20:39.845Z,4.63
2022-10-13T04:23:25.663Z,4.47
2022-10-13T04:26:20.609Z,4.90
2022-10-13T04:29:08.066Z,3.92
2022-10-13T04:31:53.775Z,3.90
2022-10-13T04:34:39.278Z,3.92
2022-10-13T04:37:24.875Z,3.45
2022-10-13T04:40:10.949Z,4.07
2022-10-13T04:42:56.531Z,3.72
2022-10-13T04:45:42.058Z,3.47
2022-10-13T04:48:27.991Z,4.00
2022-10-13T04:51:19.995Z,4.72
2022-10-13T04:54:05.731Z,4.00
2022-10-13T04:56:51.106Z,3.88
2022-10-13T04:59:36.374Z,4.00
2022-10-13T05:02:22.612Z,4.03
2022-10-13T05:05:08.557Z,3.65
2022-10-13T05:07:54.281Z,4.20
2022-10-13T05:10:39.673Z,3.92
2022-10-13T05:13:26.616Z,3.65
2022-10-13T05:16:18.299Z,3.72
2022-10-13T05:19:04.035Z,4.25
2022-10-13T05:21:49.565Z,3.38
2022-10-13T05:24:38.652Z,3.45
2022-10-13T05:27:24.255Z,2.90
2022-10-13T05:30:10.387Z,3.47
2022-10-13T05:32:55.705Z,3.50
2022-10-13T05:35:41.934Z,3.30
2022-10-13T05:38:27.318Z,3.38
2022-10-13T05:41:14.654Z,2.60
2022-10-13T05:44:02.606Z,3.05
2022-10-13T05:46:47.974Z,2.97
2022-10-13T05:49:36.466Z,3.15
2022-10-13T05:52:24.501Z,2.33
2022-10-13T05:55:15.154Z,2.45
2022-10-13T05:58:02.412Z,2.88
2022-10-13T06:00:49.062Z,2.90
2022-10-13T06:03:35.567Z,2.60
2022-10-13T06:06:25.806Z,2.83
2022-10-13T06:09:15.434Z,3.53
2022-10-13T06:12:01.964Z,2.97
2022-10-13T06:14:47.666Z,2.40
2022-10-13T06:17:37.331Z,3.95
2022-10-13T06:20:23.108Z,2.60
2022-10-13T06:23:08.763Z,3.00
2022-10-13T06:25:54.690Z,2.85
2022-10-13T06:28:40.405Z,3.55
2022-10-13T06:31:26.421Z,2.53
2022-10-13T06:34:12.682Z,3.92
2022-10-13T06:37:02.593Z,4.05
2022-10-13T06:39:48.076Z,2.83
2022-10-13T06:42:34.761Z,2.58
2022-10-13T06:45:29.530Z,3.05
2022-10-13T06:48:15.002Z,3.33
2022-10-13T06:51:09.147Z,3.47
2022-10-13T06:53:57.042Z,4.00
2022-10-13T06:56:44.012Z,4.30
2022-10-13T06:59:29.492Z,5.40
2022-10-13T07:02:14.979Z,5.18
2022-10-13T07:05:00.632Z,5.10
2022-10-13T07:07:46.520Z,5.00
2022-10-13T07:10:31.870Z,4.82
2022-10-13T07:13:17.392Z,4.40
2022-10-13T07:16:04.447Z,4.00
2022-10-13T07:18:50.885Z,3.55
2022-10-13T07:21:36.933Z,4.40
2022-10-13T07:24:22.938Z,3.35
2022-10-13T07:27:08.303Z,3.28
2022-10-13T07:29:53.743Z,3.58
2022-10-13T07:32:42.232Z,3.55
2022-10-13T07:35:30.669Z,3.30
2022-10-13T07:38:16.804Z,3.78
2022-10-13T07:41:08.817Z,3.78
2022-10-13T07:43:55.738Z,2.85
2022-10-13T07:46:41.055Z,3.30
2022-10-13T07:49:26.446Z,3.10
2022-10-13T07:52:12.273Z,3.13
2022-10-13T07:54:57.778Z,2.80
2022-10-13T07:57:43.051Z,2.88
2022-10-13T08:00:28.952Z,2.80
2022-10-13T08:03:14.157Z,2.95
2022-10-13T08:06:00.674Z,2.90
2022-10-13T08:08:46.434Z,3.13
2022-10-13T08:11:35.419Z,2.88
2022-10-13T08:14:21.456Z,4.47
2022-10-13T08:17:06.945Z,4.10
2022-10-13T08:19:52.320Z,4.63
2022-10-13T08:22:38.305Z,4.30
2022-10-13T08:25:23.515Z,4.68
2022-10-13T08:28:19.014Z,5.47
2022-10-13T08:31:04.641Z,5.65
2022-10-13T08:33:51.330Z,5.22
2022-10-13T08:36:37.830Z,5.72
2022-10-13T08:39:24.639Z,4.43
2022-10-13T08:42:22.492Z,6.28
2022-10-13T08:45:36.316Z,5.55
2022-10-13T08:48:24.718Z,4.70
2022-10-13T08:51:13.262Z,5.32
2022-10-13T08:54:00.032Z,5.88
2022-10-13T08:56:50.093Z,5.55
2022-10-13T08:59:35.666Z,4.93
2022-10-13T09:02:31.922Z,4.60
2022-10-13T09:05:27.984Z,4.72
2022-10-13T09:08:21.285Z,4.78
2022-10-13T09:11:06.839Z,4.53
2022-10-13T09:13:58.181Z,4.32
2022-10-13T09:16:45.353Z,3.70
2022-10-13T09:19:36.744Z,4.03
2022-10-13T09:22:30.260Z,4.30
2022-10-13T09:25:20.576Z,4.82
2022-10-13T09:28:15.900Z,3.88
2022-10-13T09:31:25.603Z,4.15
2022-10-13T09:34:20.121Z,4.03
2022-10-13T09:37:10.380Z,3.92
2022-10-13T09:40:19.722Z,4.13
2022-10-13T09:43:20.648Z,3.88
2022-10-13T09:46:28.668Z,3.47
2022-10-13T09:49:40.062Z,4.28
2022-10-13T09:52:25.576Z,3.00
2022-10-13T09:55:34.102Z,3.50
2022-10-13T09:58:28.487Z,3.13
2022-10-13T10:01:23.262Z,3.65
2022-10-13T10:04:14.646Z,3.58
2022-10-13T10:07:09.918Z,2.80
2022-10-13T10:10:01.821Z,3.00
2022-10-13T10:12:47.797Z,2.78
2022-10-13T10:15:49.803Z,2.88
2022-10-13T10:18:45.258Z,2.50
2022-10-13T10:21:43.979Z,2.67
2022-10-13T10:24:53.746Z,2.03
2022-10-13T10:27:46.164Z,1.67
2022-10-13T10:30:37.935Z,2.38
2022-10-13T10:33:43.113Z,2.17
2022-10-13T10:37:06.450Z,1.95
2022-10-13T10:40:01.028Z,1.90
2022-10-13T10:43:13.346Z,2.90
2022-10-13T10:48:50.466Z,2.22
2022-10-13T10:51:38.095Z,1.65
2022-10-13T10:55:18.538Z,2.53
2022-10-13T10:58:20.727Z,1.60
2022-10-13T11:01:16.376Z,2.40
2022-10-13T11:04:40.626Z,2.22
2022-10-13T11:07:26.156Z,2.30
2022-10-13T11:10:16.411Z,1.88
2022-10-13T11:13:02.075Z,1.95
2022-10-13T11:15:48.062Z,1.98
2022-10-13T11:18:55.078Z,1.67
2022-10-13T11:22:16.008Z,1.75
2022-10-13T11:25:43.331Z,1.80
2022-10-13T11:28:41.069Z,1.40
2022-10-13T11:31:47.196Z,2.17
2022-10-13T11:34:33.044Z,2.67
2022-10-13T11:37:18.810Z,2.10
2022-10-13T11:40:22.891Z,1.55
2022-10-13T11:43:27.115Z,1.40
2022-10-13T11:46:19.672Z,2.10
2022-10-13T11:49:40.681Z,1.70
2022-10-13T11:52:59.856Z,1.52
2022-10-13T11:55:55.701Z,1.52
2022-10-13T11:58:42.763Z,1.55
2022-10-13T12:01:28.726Z,1.42
2022-10-13T12:04:15.791Z,1.58
2022-10-13T12:07:04.747Z,1.70
2022-10-13T12:09:52.339Z,1.60
2022-10-13T12:12:48.037Z,1.70
2022-10-13T12:15:43.561Z,2.10
2022-10-13T12:18:34.851Z,1.70
2022-10-13T12:21:22.666Z,1.38
2022-10-13T12:24:10.070Z,1.23
2022-10-13T12:26:57.043Z,1.08
2022-10-13T12:29:43.636Z,1.17
2022-10-13T12:32:32.259Z,1.40
2022-10-13T12:35:19.315Z,1.25
2022-10-13T12:38:21.170Z,1.77
2022-10-13T12:41:06.672Z,1.83
2022-10-13T12:43:53.391Z,1.70
2022-10-13T12:46:46.076Z,1.48
2022-10-13T12:49:36.300Z,1.65
2022-10-13T12:52:25.376Z,1.67
2022-10-13T12:55:19.468Z,1.50
2022-10-13T12:58:04.934Z,1.75
2022-10-13T13:01:09.477Z,1.02
2022-10-13T13:04:27.682Z,1.70
2022-10-13T13:07:35.701Z,1.45
2022-10-13T13:10:21.433Z,1.38
2022-10-13T13:13:15.241Z,1.80
2022-10-13T13:16:21.866Z,1.30
2022-10-13T13:19:22.798Z,1.60
2022-10-13T13:22:08.905Z,1.40
2022-10-13T13:24:54.319Z,1.10
2022-10-13T13:27:40.765Z,1.60
2022-10-13T13:30:26.786Z,1.17
2022-10-13T13:35:58.058Z,1.60
2022-10-13T13:38:44.374Z,1.15
2022-10-13T13:41:31.357Z,1.38
2022-10-13T13:44:16.882Z,1.60
2022-10-13T13:47:03.043Z,1.33
2022-10-13T13:49:50.420Z,0.90
2022-10-13T13:52:35.963Z,1.30
2022-10-13T13:55:22.641Z,1.85
2022-10-13T13:58:09.453Z,1.25
2022-10-13T14:00:55.496Z,1.60
2022-10-13T14:03:41.323Z,1.50
2022-10-13T14:06:27.891Z,2.65
2022-10-13T14:09:13.689Z,1.65
2022-10-13T14:12:00.108Z,1.17
2022-10-13T14:14:45.748Z,1.02
2022-10-13T14:17:33.067Z,2.22
2022-10-13T14:20:19.904Z,1.08
2022-10-13T14:23:05.642Z,1.23
2022-10-13T14:25:51.528Z,1.45
2022-10-13T14:28:45.518Z,1.48
2022-10-13T14:31:32.429Z,1.20
2022-10-13T14:34:19.165Z,1.50
2022-10-13T14:37:04.997Z,1.48
2022-10-13T14:39:50.790Z,0.93
2022-10-13T14:42:36.574Z,1.50
2022-10-13T14:45:23.359Z,2.65
2022-10-13T14:48:09.046Z,1.88
2022-10-13T14:50:54.870Z,1.35
2022-10-13T14:53:43.209Z,2.38
2022-10-13T14:56:30.458Z,1.08
2022-10-13T14:59:16.770Z,1.13
2022-10-13T15:02:03.322Z,1.35
2022-10-13T15:04:48.673Z,1.48
2022-10-13T15:07:36.854Z,1.63
2022-10-13T15:10:26.062Z,1.33
2022-10-13T15:13:12.387Z,1.20
2022-10-13T15:16:02.648Z,1.52
2022-10-13T15:18:49.192Z,1.48
2022-10-13T15:21:34.999Z,1.38
2022-10-13T15:24:21.724Z,1.70
2022-10-13T15:27:10.796Z,2.03
2022-10-13T15:29:56.300Z,1.70
2022-10-13T15:32:41.955Z,2.08
2022-10-13T15:35:31.476Z,1.65
2022-10-13T15:38:18.667Z,2.05
2022-10-13T15:41:07.051Z,1.65
2022-10-13T15:43:53.047Z,1.60
2022-10-13T15:46:49.158Z,2.00
2022-10-13T15:49:45.221Z,1.40
2022-10-13T15:52:34.635Z,2.08
2022-10-13T15:55:20.953Z,1.80
2022-10-13T15:58:11.350Z,2.00
2022-10-13T16:00:59.175Z,1.38
2022-10-13T16:03:45.352Z,2.38
2022-10-13T16:06:33.673Z,1.90
2022-10-13T16:09:19.502Z,2.92
2022-10-13T16:12:05.594Z,1.65
2022-10-13T16:14:52.198Z,1.65
2022-10-13T16:17:38.142Z,2.05
2022-10-13T16:20:23.832Z,1.85
2022-10-13T16:23:09.368Z,2.33
2022-10-13T16:25:54.839Z,2.95
2022-10-13T16:28:40.548Z,2.40
2022-10-13T16:31:26.434Z,2.50
2022-10-13T16:34:11.933Z,1.58
2022-10-13T16:36:57.205Z,2.03
2022-10-13T16:39:44.621Z,1.70
2022-10-13T16:42:33.252Z,1.42
2022-10-13T16:45:21.522Z,1.80
2022-10-13T16:48:16.142Z,1.20
2022-10-13T16:51:06.714Z,2.15
2022-10-13T16:53:55.512Z,2.05
2022-10-13T16:56:43.118Z,2.30
2022-10-13T16:59:28.913Z,2.42
2022-10-13T17:02:15.485Z,2.05
2022-10-13T17:05:01.251Z,3.80
2022-10-13T17:07:46.836Z,4.55
2022-10-13T17:10:33.263Z,4.82
2022-10-13T17:13:19.585Z,3.83
2022-10-13T17:16:05.271Z,3.78
2022-10-13T17:18:50.544Z,5.53
2022-10-13T17:21:37.015Z,3.55
2022-10-13T17:24:24.422Z,3.17
2022-10-13T17:27:10.228Z,4.18
2022-10-13T17:29:56.358Z,2.92
2022-10-13T17:32:42.136Z,2.50
2022-10-13T17:35:27.677Z,2.42
2022-10-13T17:38:15.583Z,2.55
2022-10-13T17:41:02.841Z,2.80
2022-10-13T17:43:49.939Z,1.85
2022-10-13T17:46:38.076Z,1.58
2022-10-13T17:49:24.813Z,2.33
2022-10-13T17:52:10.312Z,1.88
2022-10-13T17:54:56.060Z,2.03
2022-10-13T17:57:42.377Z,2.13
2022-10-13T18:00:28.045Z,2.28
2022-10-13T18:03:13.607Z,2.15
2022-10-13T18:05:59.070Z,2.90
2022-10-13T18:08:44.642Z,2.15
2022-10-13T18:11:30.014Z,2.33
2022-10-13T18:14:15.889Z,3.38
2022-10-13T18:17:03.465Z,3.90
2022-10-13T18:19:50.995Z,8.85
2022-10-13T18:22:36.571Z,5.97
2022-10-13T18:25:24.534Z,4.38
2022-10-13T18:28:09.994Z,3.63
2022-10-13T18:30:55.747Z,3.80
2022-10-13T18:33:41.978Z,4.53
2022-10-13T18:36:35.555Z,4.90
2022-10-13T18:39:28.055Z,4.07
2022-10-13T18:42:13.887Z,3.67
2022-10-13T18:44:59.719Z,4.18
2022-10-13T18:47:45.453Z,4.03
2022-10-13T18:50:31.463Z,4.93
2022-10-13T18:53:18.814Z,5.50
2022-10-13T18:56:10.616Z,5.20
2022-10-13T18:58:59.874Z,4.28
2022-10-13T19:01:46.177Z,4.72
2022-10-13T19:04:32.500Z,4.00
2022-10-13T19:07:19.308Z,4.22
2022-10-13T19:10:06.685Z,4.18
2022-10-13T19:12:52.766Z,5.00
2022-10-13T19:15:39.942Z,4.80
2022-10-13T19:18:25.875Z,4.03
2022-10-13T19:21:12.440Z,4.10
2022-10-13T19:23:59.901Z,3.85
2022-10-13T19:26:45.844Z,4.18
2022-10-13T19:29:33.276Z,4.35
2022-10-13T19:32:20.620Z,4.15
2022-10-13T19:35:06.484Z,4.50
2022-10-13T19:37:52.015Z,4.20
2022-10-13T19:40:42.423Z,4.70
2022-10-13T19:43:27.857Z,4.38
2022-10-13T19:46:14.077Z,5.30
2022-10-13T19:49:00.695Z,5.50
2022-10-13T19:51:47.478Z,5.22
2022-10-13T19:54:36.088Z,5.50
2022-10-13T19:57:22.369Z,4.53
2022-10-13T20:00:09.167Z,5.13
2022-10-13T20:02:58.294Z,5.03
2022-10-13T20:05:44.268Z,4.95
2022-10-13T20:08:30.137Z,4.85
2022-10-13T20:11:23.410Z,5.03
2022-10-13T20:14:09.945Z,4.78
2022-10-13T20:16:58.444Z,4.32
2022-10-13T20:19:44.573Z,3.40
2022-10-13T20:22:30.212Z,3.15
2022-10-13T20:25:19.693Z,3.78
2022-10-13T20:28:06.267Z,3.47
2022-10-13T20:30:51.987Z,3.67
2022-10-13T20:33:37.877Z,2.42
2022-10-13T20:36:25.397Z,2.53
2022-10-13T20:39:10.935Z,2.80
2022-10-13T20:41:56.254Z,2.60
2022-10-13T20:44:42.272Z,2.90
2022-10-13T20:47:28.561Z,2.45
2022-10-13T20:50:14.685Z,2.40
2022-10-13T20:53:00.055Z,2.22
2022-10-13T20:55:54.645Z,1.95
2022-10-13T20:58:40.775Z,1.63
2022-10-13T21:01:26.558Z,1.80
2022-10-13T21:04:12.368Z,1.67
2022-10-13T21:06:57.744Z,1.55
2022-10-13T21:09:43.128Z,1.63
2022-10-13T21:12:28.695Z,1.77
2022-10-13T21:15:14.741Z,1.73
2022-10-13T21:18:00.217Z,1.95
2022-10-13T21:20:45.484Z,1.80
2022-10-13T21:23:30.884Z,1.48
2022-10-13T21:26:21.359Z,1.90
2022-10-13T21:29:07.645Z,1.53
2022-10-13T21:31:53.441Z,1.60
2022-10-13T21:34:38.910Z,1.90
2022-10-13T21:37:24.708Z,1.60
2022-10-13T21:40:10.638Z,1.38
2022-10-13T21:42:56.499Z,1.98
2022-10-13T21:45:42.546Z,2.95
2022-10-13T21:48:27.942Z,3.33
2022-10-13T21:51:18.610Z,3.08
2022-10-13T21:54:11.974Z,2.47
2022-10-13T21:56:57.660Z,2.92
2022-10-13T21:59:43.105Z,2.03
2022-10-13T22:02:28.765Z,1.98
2022-10-13T22:05:14.411Z,2.47
2022-10-13T22:08:00.174Z,2.38
2022-10-13T22:10:45.508Z,2.47
2022-10-13T22:13:30.932Z,2.25
2022-10-13T22:16:22.429Z,2.50
2022-10-13T22:19:07.945Z,2.08
2022-10-13T22:21:54.253Z,2.00
2022-10-13T22:24:39.948Z,1.70
2022-10-13T22:27:25.864Z,1.95
2022-10-13T22:30:12.237Z,1.73
2022-10-13T22:32:57.420Z,2.08
2022-10-13T22:35:43.003Z,2.30
2022-10-13T22:38:28.667Z,1.88
2022-10-13T22:41:16.860Z,1.40
2022-10-13T22:44:04.163Z,1.55
2022-10-13T22:46:49.506Z,1.77
2022-10-13T22:49:34.696Z,1.58
2022-10-13T22:52:22.109Z,2.10
2022-10-13T22:55:10.024Z,2.00
2022-10-13T22:57:56.522Z,2.40
2022-10-13T23:00:41.887Z,2.15
2022-10-13T23:03:27.247Z,2.25
2022-10-13T23:06:20.477Z,2.10
2022-10-13T23:09:09.370Z,3.45
2022-10-13T23:11:59.651Z,2.30
2022-10-13T23:14:46.404Z,2.72
2022-10-13T23:17:31.879Z,2.90
2022-10-13T23:20:17.475Z,2.95
2022-10-13T23:23:03.140Z,2.65
2022-10-13T23:25:48.620Z,1.98
2022-10-13T23:28:35.049Z,2.33
2022-10-13T23:31:20.999Z,2.83
2022-10-13T23:34:06.415Z,3.15
2022-10-13T23:36:52.036Z,2.13
2022-10-13T23:39:37.457Z,2.83
2022-10-13T23:42:22.960Z,2.30
2022-10-13T23:45:09.128Z,2.50
2022-10-13T23:47:54.669Z,2.53
2022-10-13T23:50:40.748Z,1.98
2022-10-13T23:53:26.070Z,2.38
2022-10-13T23:56:12.571Z,2.20
2022-10-13T23:58:58.250Z,2.25
